Time;durP1;ratioP1;P1;durP2;ratioP2;P2;SDS_P1;SDS_P2;PMS_P1;PMS_P2;Temp;Humidity;BMP_temperature;BMP_pressure;BME280_temperature;BME280_humidity;BME280_pressure;Samples;Min_cycle;Max_cycle;Signal;HPM_P1;HPM_P2
2023/10/14 00:00:26;;;;;;;2.92;1.00;;;;;;;14.04;100.00;100113.00;5059423;28;20024;-69
2023/10/14 00:02:52;;;;;;;3.47;0.80;;;;;;;13.98;100.00;100115.72;5060122;28;20109;-68
2023/10/14 00:05:19;;;;;;;3.47;1.05;;;;;;;13.92;100.00;100125.38;5062909;28;20063;-69
2023/10/14 00:07:45;;;;;;;5.18;0.82;;;;;;;13.90;100.00;100114.91;5068599;28;20021;-69
2023/10/14 00:10:10;;;;;;;3.00;0.75;;;;;;;13.89;100.00;100123.97;5062351;28;20044;-69
2023/10/14 00:12:37;;;;;;;2.42;0.60;;;;;;;13.89;100.00;100128.47;5067058;28;20035;-68
2023/10/14 00:15:05;;;;;;;1.50;0.50;;;;;;;13.83;100.00;100131.97;5064354;28;20383;-69
2023/10/14 00:17:37;;;;;;;1.67;0.60;;;;;;;13.83;100.00;100139.97;5069220;28;20028;-68
2023/10/14 00:20:03;;;;;;;3.25;0.75;;;;;;;13.80;100.00;100138.53;5069392;28;20028;-69
2023/10/14 00:22:29;;;;;;;3.33;0.95;;;;;;;13.78;100.00;100135.25;5059216;28;20036;-69
2023/10/14 00:24:58;;;;;;;2.78;1.00;;;;;;;13.82;100.00;100128.47;5066263;28;20524;-69
2023/10/14 00:27:24;;;;;;;2.85;0.63;;;;;;;13.79;100.00;100152.91;5070377;28;20025;-70
2023/10/14 00:30:05;;;;;;;1.65;0.50;;;;;;;13.78;100.00;100150.44;5068265;28;20082;-69
2023/10/14 00:32:30;;;;;;;1.90;0.65;;;;;;;13.77;100.00;100148.81;5066449;28;20020;-69
2023/10/14 00:34:56;;;;;;;2.45;0.90;;;;;;;13.75;100.00;100143.69;5064681;28;20048;-68
2023/10/14 00:37:21;;;;;;;3.85;0.65;;;;;;;13.74;100.00;100163.41;5063415;28;20032;-68
2023/10/14 00:39:54;;;;;;;1.20;0.38;;;;;;;13.73;100.00;100180.44;5069734;28;20512;-68
2023/10/14 00:42:20;;;;;;;2.03;0.75;;;;;;;13.70;100.00;100196.03;5066998;28;20440;-68
2023/10/14 00:44:46;;;;;;;1.70;0.50;;;;;;;13.69;100.00;100187.22;5060313;28;20544;-68
2023/10/14 00:47:15;;;;;;;1.90;0.60;;;;;;;13.66;100.00;100216.16;5066302;28;20036;-68
2023/10/14 00:49:42;;;;;;;2.00;0.75;;;;;;;13.62;100.00;100210.41;5069104;28;20064;-68
2023/10/14 00:52:15;;;;;;;1.48;0.70;;;;;;;13.61;100.00;100222.13;5069180;28;20017;-68
2023/10/14 00:59:48;;;;;;;2.97;0.80;;;;;;;13.54;100.00;100245.28;5068673;28;20028;-68
2023/10/14 01:02:14;;;;;;;5.03;1.02;;;;;;;13.54;100.00;100253.28;5066967;28;20043;-68
2023/10/14 01:04:47;;;;;;;3.15;0.90;;;;;;;13.48;100.00;100262.13;5066192;28;20066;-68
2023/10/14 01:07:15;;;;;;;8.15;1.40;;;;;;;13.39;100.00;100266.00;5064960;28;20107;-68
2023/10/14 01:12:16;;;;;;;9.10;1.30;;;;;;;13.23;100.00;100265.34;5068790;28;20498;-68
2023/10/14 01:14:45;;;;;;;11.98;1.40;;;;;;;13.19;100.00;100264.13;5065206;28;20060;-68
2023/10/14 01:17:20;;;;;;;;;;;;;;;13.25;100.00;100260.63;5067030;28;20035;-69
2023/10/14 01:19:46;;;;;;;8.98;1.77;;;;;;;13.13;100.00;100264.06;5063073;28;19958;-69
2023/10/14 01:22:12;;;;;;;7.60;1.63;;;;;;;13.10;100.00;100275.13;5070445;28;20470;-68
2023/10/14 01:24:39;;;;;;;9.52;1.70;;;;;;;13.08;100.00;100280.69;5066708;28;20099;-68
2023/10/14 01:27:06;;;;;;;9.23;1.50;;;;;;;13.06;100.00;100290.72;5065278;28;20070;-68
2023/10/14 01:29:38;;;;;;;9.75;1.75;;;;;;;13.08;100.00;100302.00;5061203;28;20457;-68
2023/10/14 01:32:24;;;;;;;6.22;1.42;;;;;;;13.07;100.00;100303.03;5063963;28;20024;-68
2023/10/14 01:34:57;;;;;;;9.93;1.48;;;;;;;13.03;100.00;100307.13;5065529;28;20085;-68
2023/10/14 01:37:26;;;;;;;11.45;1.92;;;;;;;13.03;100.00;100318.59;5064569;28;20029;-68
2023/10/14 01:39:56;;;;;;;8.23;1.70;;;;;;;13.04;100.00;100332.75;5069021;28;20028;-68
2023/10/14 01:42:23;;;;;;;12.65;1.90;;;;;;;12.87;100.00;100344.75;5063868;28;20125;-68
2023/10/14 01:44:53;;;;;;;12.52;2.40;;;;;;;12.76;100.00;100355.97;5069981;28;20025;-68
2023/10/14 01:47:25;;;;;;;14.15;2.83;;;;;;;12.62;100.00;100352.41;5063419;28;20026;-68
2023/10/14 01:49:52;;;;;;;15.63;2.33;;;;;;;12.53;100.00;100354.41;5069766;28;20051;-68
2023/10/14 01:52:19;;;;;;;19.45;2.75;;;;;;;12.45;100.00;100351.91;5060484;28;20104;-67
2023/10/14 01:54:45;;;;;;;14.88;2.17;;;;;;;12.43;100.00;100359.22;5067122;28;20056;-67
2023/10/14 01:57:16;;;;;;;21.27;2.40;;;;;;;12.41;100.00;100362.09;5066227;28;20455;-68
2023/10/14 01:59:43;;;;;;;14.85;2.20;;;;;;;12.42;100.00;100381.56;5066169;28;20036;-68
2023/10/14 02:02:09;;;;;;;24.08;2.72;;;;;;;12.41;100.00;100387.91;5059090;28;20056;-67
2023/10/14 02:04:36;;;;;;;17.52;3.03;;;;;;;12.42;100.00;100389.53;5064078;28;20036;-67
2023/10/14 02:07:19;;;;;;;14.40;2.55;;;;;;;12.44;100.00;100398.19;5060045;28;20024;-67
2023/10/14 02:09:45;;;;;;;13.40;2.30;;;;;;;12.44;100.00;100408.84;5060905;28;20120;-67
2023/10/14 02:12:12;;;;;;;14.68;2.33;;;;;;;12.45;100.00;100415.00;5062728;28;20103;-67
2023/10/14 02:14:56;;;;;;;12.43;2.05;;;;;;;12.46;100.00;100421.97;5060585;28;20037;-67
2023/10/14 02:17:23;;;;;;;14.52;2.08;;;;;;;12.47;100.00;100432.41;5066188;28;20044;-67
2023/10/14 02:19:51;;;;;;;12.32;2.15;;;;;;;12.49;100.00;100426.91;5066135;28;20030;-67
2023/10/14 02:22:21;;;;;;;16.02;2.15;;;;;;;12.48;100.00;100439.41;5069286;28;20525;-67
2023/10/14 02:24:48;;;;;;;15.45;2.25;;;;;;;12.51;100.00;100440.84;5064372;28;20131;-67
2023/10/14 02:27:14;;;;;;;15.77;2.45;;;;;;;12.48;100.00;100451.88;5062751;28;20063;-68
2023/10/14 02:29:43;;;;;;;14.82;2.25;;;;;;;12.45;100.00;100457.59;5063570;28;20060;-67
2023/10/14 02:32:13;;;;;;;14.25;2.15;;;;;;;12.43;100.00;100465.75;5065423;28;20111;-67
2023/10/14 02:34:39;;;;;;;12.02;2.45;;;;;;;12.38;100.00;100474.31;5056697;28;20032;-67
2023/10/14 02:37:07;;;;;;;16.20;2.25;;;;;;;12.35;100.00;100480.03;5061147;28;20401;-67
2023/10/14 02:39:32;;;;;;;11.07;1.90;;;;;;;12.29;100.00;100499.44;5055864;28;20086;-67
2023/10/14 02:44:43;;;;;;;12.02;1.90;;;;;;;12.21;100.00;100512.06;5060226;28;20032;-67
2023/10/14 02:47:09;;;;;;;14.20;2.35;;;;;;;12.17;100.00;100518.78;5057572;28;20027;-67
2023/10/14 02:49:37;;;;;;;13.50;2.30;;;;;;;12.14;100.00;100516.47;5062416;28;20028;-67
2023/10/14 02:52:08;;;;;;;14.20;2.33;;;;;;;12.12;100.00;100529.16;5060105;28;20025;-67
2023/10/14 02:54:34;;;;;;;13.75;2.60;;;;;;;12.04;100.00;100528.25;5066174;28;20566;-67
2023/10/14 02:57:00;;;;;;;13.98;2.42;;;;;;;12.00;100.00;100529.66;5064744;28;20059;-67
2023/10/14 03:02:16;;;;;;;12.60;2.47;;;;;;;11.88;100.00;100555.09;5060987;28;20059;-67
2023/10/14 03:04:49;;;;;;;14.23;2.25;;;;;;;11.85;100.00;100559.94;5060840;28;20474;-67
2023/10/14 03:07:27;;;;;;;18.63;2.70;;;;;;;11.82;100.00;100571.78;5062433;28;20039;-67
2023/10/14 03:09:52;;;;;;;11.40;2.25;;;;;;;11.73;100.00;100583.50;5064274;28;20027;-67
2023/10/14 03:12:21;;;;;;;13.50;2.60;;;;;;;11.65;100.00;100583.59;5059592;28;20025;-67
2023/10/14 03:14:52;;;;;;;16.02;2.40;;;;;;;11.57;100.00;100592.50;5053635;28;20032;-67
2023/10/14 03:17:39;;;;;;;15.18;2.25;;;;;;;11.53;100.00;100598.34;5058239;28;20596;-67
2023/10/14 03:23:01;;;;;;;13.88;2.90;;;;;;;11.36;100.00;100608.34;5061216;28;20039;-67
2023/10/14 03:25:27;;;;;;;10.40;2.00;;;;;;;11.27;100.00;100623.53;5066350;28;20035;-67
2023/10/14 03:30:46;;;;;;;14.75;2.45;;;;;;;11.12;100.00;100636.78;5061554;28;20101;-66
2023/10/14 03:33:19;;;;;;;10.20;2.42;;;;;;;11.06;100.00;100644.66;5062750;28;20036;-67
2023/10/14 03:35:54;;;;;;;15.75;2.22;;;;;;;11.05;100.00;100649.16;5064487;28;20497;-67
2023/10/14 03:38:25;;;;;;;10.30;1.90;;;;;;;10.96;100.00;100652.84;5064035;28;20035;-66
2023/10/14 03:41:02;;;;;;;16.23;2.50;;;;;;;10.94;99.84;100652.22;5063897;28;20033;-66
2023/10/14 03:43:28;;;;;;;11.60;2.60;;;;;;;10.96;99.31;100675.94;5058289;28;20452;-67
2023/10/14 03:45:56;;;;;;;19.75;2.20;;;;;;;10.93;99.10;100671.81;5066605;28;20056;-66
2023/10/14 03:48:27;;;;;;;14.77;2.45;;;;;;;10.86;98.92;100674.34;5065843;28;20635;-67
2023/10/14 03:50:54;;;;;;;12.80;2.13;;;;;;;10.83;99.13;100679.19;5066952;28;20025;-67
2023/10/14 03:53:19;;;;;;;17.80;2.50;;;;;;;10.76;98.59;100679.09;5066644;28;20031;-66
2023/10/14 03:55:45;;;;;;;15.00;2.53;;;;;;;10.75;98.75;100685.41;5067155;28;20029;-66
2023/10/14 03:58:12;;;;;;;14.38;2.45;;;;;;;10.68;98.31;100684.41;5061084;28;20485;-67
2023/10/14 04:00:37;;;;;;;18.45;2.47;;;;;;;10.64;98.60;100687.59;5065094;28;20047;-66
2023/10/14 04:03:14;;;;;;;15.45;2.58;;;;;;;10.55;98.24;100698.28;5065008;28;20509;-67
2023/10/14 04:05:52;;;;;;;15.27;3.00;;;;;;;10.50;98.50;100697.97;5066050;28;20040;-66
2023/10/14 04:08:25;;;;;;;17.52;2.60;;;;;;;10.53;98.44;100704.78;5067937;28;20029;-67
2023/10/14 04:10:55;;;;;;;17.25;2.67;;;;;;;10.43;98.38;100698.84;5063132;28;20445;-66
2023/10/14 04:13:21;;;;;;;14.23;2.28;;;;;;;10.44;98.67;100713.78;5071053;28;20467;-66
2023/10/14 04:15:50;;;;;;;12.02;2.30;;;;;;;10.40;98.45;100726.53;5067747;28;20039;-67
2023/10/14 04:18:21;;;;;;;14.75;2.45;;;;;;;10.31;98.36;100727.59;5070670;28;20056;-66
2023/10/14 04:20:58;;;;;;;13.07;2.22;;;;;;;10.19;98.68;100719.16;5064995;28;20483;-67
2023/10/14 04:23:28;;;;;;;12.43;1.77;;;;;;;10.21;98.86;100733.09;5062610;28;20620;-67
2023/10/14 04:26:03;;;;;;;11.98;2.17;;;;;;;10.16;98.65;100740.72;5068897;28;20093;-67
2023/10/14 04:28:33;;;;;;;12.95;2.45;;;;;;;10.14;98.75;100744.53;5068824;28;20484;-67
2023/10/14 04:31:05;;;;;;;21.15;2.70;;;;;;;10.09;99.01;100757.47;5069054;28;20036;-67
2023/10/14 04:33:52;;;;;;;10.27;2.22;;;;;;;10.06;99.32;100755.97;5068894;28;20081;-67
2023/10/14 04:38:44;;;;;;;17.58;2.72;;;;;;;10.00;99.55;100761.13;5068766;28;20413;-66
2023/10/14 04:41:24;;;;;;;9.70;2.22;;;;;;;9.99;99.63;100770.94;5064748;28;20101;-66
2023/10/14 04:46:21;;;;;;;14.20;2.40;;;;;;;9.95;99.78;100777.56;5069162;28;20332;-67
2023/10/14 04:48:59;;;;;;;14.60;2.50;;;;;;;9.98;99.75;100781.72;5064645;28;20067;-66
2023/10/14 04:51:34;;;;;;;11.75;2.00;;;;;;;9.98;99.65;100793.16;5065611;28;20043;-66
2023/10/14 04:54:00;;;;;;;13.65;2.47;;;;;;;9.99;99.93;100801.94;5063866;28;20020;-66
2023/10/14 04:56:29;;;;;;;16.08;2.10;;;;;;;9.98;100.00;100806.41;5064635;28;20399;-67
2023/10/14 04:58:55;;;;;;;14.63;2.50;;;;;;;9.97;99.93;100810.06;5059913;28;20020;-66
2023/10/14 05:01:24;;;;;;;14.45;1.90;;;;;;;9.92;99.74;100807.91;5063458;28;20029;-66
2023/10/14 05:03:55;;;;;;;9.70;2.03;;;;;;;9.88;100.00;100806.59;5064296;28;20032;-66
2023/10/14 05:06:21;;;;;;;11.77;2.63;;;;;;;9.86;100.00;100823.69;5052029;28;20028;-67
2023/10/14 05:08:51;;;;;;;12.05;2.50;;;;;;;9.80;100.00;100819.84;5059460;28;20032;-66
2023/10/14 05:11:18;;;;;;;17.70;2.45;;;;;;;9.79;100.00;100827.97;5065931;28;20535;-67
2023/10/14 05:14:34;;;;;;;16.52;2.33;;;;;;;9.78;100.00;100836.91;5065639;28;20021;-66
2023/10/14 05:16:57;;;;;;;;;;;;;;;9.79;100.00;100835.91;5055804;28;20039;-67
2023/10/14 05:19:24;;;;;;;17.73;2.45;;;;;;;9.80;100.00;100840.22;5063443;28;19920;-66
2023/10/14 05:21:57;;;;;;;15.02;3.05;;;;;;;9.81;100.00;100847.19;5059484;28;20590;-67
2023/10/14 05:24:28;;;;;;;17.98;2.80;;;;;;;9.78;100.00;100850.16;5061196;28;20403;-66
2023/10/14 05:27:01;;;;;;;17.67;2.78;;;;;;;9.78;100.00;100864.25;5069714;28;20032;-66
2023/10/14 05:29:28;;;;;;;16.52;2.53;;;;;;;9.80;100.00;100858.78;5066655;28;20107;-67
2023/10/14 05:32:15;;;;;;;20.13;2.60;;;;;;;9.81;100.00;100863.09;5064865;28;20153;-66
2023/10/14 05:34:43;;;;;;;15.05;2.65;;;;;;;9.82;100.00;100870.06;5064974;28;20024;-67
2023/10/14 05:37:11;;;;;;;17.75;2.80;;;;;;;9.83;100.00;100877.03;5066907;28;20119;-66
2023/10/14 05:39:37;;;;;;;19.15;2.70;;;;;;;9.82;100.00;100880.66;5065247;28;20028;-66
2023/10/14 05:42:13;;;;;;;15.30;2.53;;;;;;;9.79;100.00;100881.84;5068806;28;20082;-66
2023/10/14 05:44:46;;;;;;;14.90;2.67;;;;;;;9.75;100.00;100885.81;5065704;28;20106;-66
2023/10/14 05:47:11;;;;;;;19.38;2.50;;;;;;;9.75;100.00;100884.97;5064888;28;20031;-66
2023/10/14 05:49:37;;;;;;;15.50;2.63;;;;;;;9.73;100.00;100897.56;5065184;28;20032;-66
2023/10/14 05:52:03;;;;;;;12.70;2.72;;;;;;;9.71;100.00;100905.69;5069346;28;20529;-66
2023/10/14 05:54:28;;;;;;;10.93;2.83;;;;;;;9.71;100.00;100903.03;5066294;28;20508;-67
2023/10/14 05:56:53;;;;;;;14.40;2.53;;;;;;;9.72;100.00;100917.13;5067307;28;20021;-67
2023/10/14 05:59:19;;;;;;;12.10;2.38;;;;;;;9.71;100.00;100916.31;5065188;28;20025;-66
2023/10/14 06:01:46;;;;;;;17.23;2.80;;;;;;;9.73;100.00;100918.78;5061881;28;20490;-67
2023/10/14 06:04:15;;;;;;;13.63;2.47;;;;;;;9.74;100.00;100933.72;5059650;28;20067;-67
2023/10/14 06:06:43;;;;;;;;;;;;;;;9.79;100.00;100934.03;5062723;28;20091;-67
2023/10/14 06:09:09;;;;;;;12.23;2.33;;;;;;;9.82;100.00;100934.53;5069738;28;19944;-67
2023/10/14 06:11:36;;;;;;;16.58;2.67;;;;;;;9.80;100.00;100925.09;5065556;28;20024;-67
2023/10/14 06:14:05;;;;;;;17.60;2.55;;;;;;;9.91;100.00;100948.66;5066533;28;20024;-67
2023/10/14 06:16:31;;;;;;;13.75;2.38;;;;;;;9.99;100.00;100951.31;5064805;28;20082;-67
2023/10/14 06:18:57;;;;;;;16.73;2.83;;;;;;;10.05;100.00;100966.59;5066542;28;20026;-67
2023/10/14 06:21:27;;;;;;;14.55;2.70;;;;;;;10.11;100.00;100970.41;5064320;28;20031;-66
2023/10/14 06:23:53;;;;;;;;;;;;;;;10.19;100.00;100973.91;5067424;28;20070;-67
2023/10/14 06:26:18;;;;;;;13.50;2.42;;;;;;;10.23;100.00;100972.63;5063313;28;19917;-67
2023/10/14 06:28:55;;;;;;;13.18;2.40;;;;;;;10.30;100.00;100988.72;5060424;28;20024;-67
2023/10/14 06:31:24;;;;;;;14.05;2.63;;;;;;;10.34;100.00;100986.53;5059229;28;20082;-66
2023/10/14 06:33:49;;;;;;;14.80;2.80;;;;;;;10.36;100.00;100993.34;5065449;28;20025;-67
2023/10/14 06:36:14;;;;;;;15.93;3.17;;;;;;;10.38;100.00;101001.16;5066957;28;20027;-67
2023/10/14 06:38:44;;;;;;;11.07;3.00;;;;;;;10.38;100.00;101003.81;5061203;28;20056;-66
2023/10/14 06:41:11;;;;;;;13.80;2.40;;;;;;;10.37;100.00;101012.75;5062376;28;20086;-67
2023/10/14 06:43:37;;;;;;;16.33;2.55;;;;;;;10.33;100.00;101017.56;5064826;28;20023;-67
2023/10/14 06:46:04;;;;;;;15.30;2.75;;;;;;;10.30;100.00;101015.25;5063253;28;20021;-67
2023/10/14 06:48:30;;;;;;;14.27;2.92;;;;;;;10.27;100.00;101017.41;5060074;28;20027;-67
2023/10/14 06:50:55;;;;;;;14.30;2.20;;;;;;;10.23;99.70;101023.03;5060747;28;20101;-66
2023/10/14 06:53:21;;;;;;;12.30;2.20;;;;;;;10.19;99.57;101031.47;5059801;28;20025;-67
2023/10/14 06:55:46;;;;;;;15.60;2.63;;;;;;;10.18;99.67;101035.13;5059660;28;20553;-67
2023/10/14 06:58:18;;;;;;;14.77;2.70;;;;;;;10.16;99.31;101043.25;5062862;28;20047;-66
2023/10/14 07:00:44;;;;;;;15.52;2.70;;;;;;;10.15;99.33;101038.94;5058229;28;20441;-67
2023/10/14 07:03:13;;;;;;;18.17;2.53;;;;;;;10.19;99.79;101058.84;5063067;28;20024;-66
2023/10/14 07:05:43;;;;;;;20.15;3.22;;;;;;;10.18;99.29;101062.50;5062716;28;20081;-67
2023/10/14 07:08:11;;;;;;;18.20;2.88;;;;;;;10.23;99.15;101062.84;5064982;28;20505;-67
2023/10/14 07:10:37;;;;;;;15.10;2.70;;;;;;;10.25;99.48;101065.34;5066123;28;20046;-66
2023/10/14 07:13:03;;;;;;;16.85;2.63;;;;;;;10.27;99.41;101068.66;5066000;28;20516;-67
2023/10/14 07:15:32;;;;;;;18.35;3.17;;;;;;;10.31;99.26;101077.97;5060861;28;20113;-67
2023/10/14 07:17:58;;;;;;;17.95;2.75;;;;;;;10.31;98.88;101063.84;5059560;28;20028;-67
2023/10/14 07:20:30;;;;;;;15.75;2.50;;;;;;;10.38;98.81;101076.31;5057841;28;20036;-67
2023/10/14 07:23:00;;;;;;;15.65;2.67;;;;;;;10.41;98.50;101077.84;5060618;28;20020;-67
2023/10/14 07:25:30;;;;;;;17.85;3.05;;;;;;;10.41;98.41;101083.97;5068486;28;20116;-67
2023/10/14 07:27:59;;;;;;;15.98;2.63;;;;;;;10.40;98.63;101094.72;5064268;28;20090;-67
2023/10/14 07:30:27;;;;;;;18.67;2.88;;;;;;;10.36;98.17;101096.06;5068291;28;20656;-67
2023/10/14 07:32:54;;;;;;;15.93;2.53;;;;;;;10.33;97.99;101107.00;5061597;28;20082;-67
2023/10/14 07:35:19;;;;;;;20.42;2.95;;;;;;;10.35;98.53;101097.88;5065913;28;20437;-67
2023/10/14 07:37:46;;;;;;;15.60;2.88;;;;;;;10.38;98.42;101118.78;5056740;28;20561;-66
2023/10/14 07:40:22;;;;;;;19.90;3.08;;;;;;;10.43;98.45;101128.94;5062216;28;20485;-67
2023/10/14 07:42:56;;;;;;;15.57;2.78;;;;;;;10.50;98.36;101122.81;5054591;28;21395;-67
2023/10/14 07:45:23;;;;;;;18.17;3.28;;;;;;;10.64;98.04;101139.91;5052672;28;20025;-66
2023/10/14 07:47:49;;;;;;;16.83;2.85;;;;;;;10.72;97.64;101131.16;5060355;28;20043;-67
2023/10/14 07:50:15;;;;;;;18.63;3.28;;;;;;;10.78;96.94;101141.94;5055209;28;20031;-66
2023/10/14 07:52:41;;;;;;;15.77;2.45;;;;;;;10.79;96.40;101140.94;5057405;28;20384;-67
2023/10/14 07:55:10;;;;;;;20.38;3.20;;;;;;;10.85;95.85;101142.13;5064591;28;20024;-67
2023/10/14 07:57:40;;;;;;;15.20;2.33;;;;;;;10.88;95.05;101152.41;5063355;28;20312;-67
2023/10/14 08:00:12;;;;;;;13.60;2.70;;;;;;;10.92;94.71;101152.91;5063166;28;20020;-67
2023/10/14 08:02:37;;;;;;;12.77;2.50;;;;;;;10.93;94.62;101138.63;5066677;28;20027;-66
2023/10/14 08:05:05;;;;;;;19.95;2.60;;;;;;;11.02;94.35;101153.59;5064529;28;20033;-67
2023/10/14 08:07:33;;;;;;;17.25;2.80;;;;;;;11.10;94.43;101162.38;5058059;28;20552;-67
2023/10/14 08:10:16;;;;;;;16.20;2.88;;;;;;;11.12;93.49;101164.88;5066757;28;20039;-66
2023/10/14 08:12:50;;;;;;;12.75;2.50;;;;;;;11.20;92.66;101167.53;5056103;28;20028;-66
2023/10/14 08:15:19;;;;;;;11.27;2.67;;;;;;;11.27;91.92;101165.03;5056741;28;20070;-66
2023/10/14 08:17:48;;;;;;;18.07;2.43;;;;;;;11.32;91.47;101178.69;5060892;28;20020;-66
2023/10/14 08:20:14;;;;;;;17.63;3.20;;;;;;;11.39;91.80;101175.19;5065043;28;20808;-67
2023/10/14 08:22:40;;;;;;;11.60;2.47;;;;;;;11.45;90.61;101179.81;5058624;28;20025;-66
2023/10/14 08:25:07;;;;;;;15.15;2.55;;;;;;;11.47;89.58;101188.47;5060234;28;20105;-66
2023/10/14 08:27:36;;;;;;;13.15;2.70;;;;;;;11.55;89.08;101181.47;5065474;28;20078;-66
2023/10/14 08:30:10;;;;;;;12.07;2.45;;;;;;;11.64;89.36;101180.47;5058599;28;20028;-66
2023/10/14 08:32:37;;;;;;;10.40;2.40;;;;;;;11.69;88.71;101188.75;5062123;28;20147;-66
2023/10/14 08:35:08;;;;;;;14.20;2.63;;;;;;;11.72;87.71;101191.91;5064534;28;20397;-66
2023/10/14 08:37:34;;;;;;;21.40;2.92;;;;;;;11.75;87.11;101196.06;5060538;28;20020;-66
2023/10/14 08:40:00;;;;;;;14.25;2.30;;;;;;;11.84;86.57;101200.38;5069052;28;20592;-67
2023/10/14 08:42:27;;;;;;;14.43;2.40;;;;;;;11.88;86.45;101212.38;5066789;28;20032;-67
2023/10/14 08:44:58;;;;;;;13.52;2.60;;;;;;;11.91;85.87;101213.88;5061303;28;20021;-67
2023/10/14 08:47:24;;;;;;;14.32;2.65;;;;;;;11.93;85.65;101218.03;5068247;28;20092;-66
2023/10/14 08:49:51;;;;;;;13.15;2.08;;;;;;;11.98;85.98;101226.31;5069133;28;20056;-66
2023/10/14 08:52:18;;;;;;;12.85;2.58;;;;;;;12.02;85.60;101214.31;5060545;28;20019;-67
2023/10/14 08:54:45;;;;;;;13.10;2.40;;;;;;;12.05;84.53;101229.13;5068112;28;20025;-66
2023/10/14 08:57:11;;;;;;;13.30;2.50;;;;;;;12.09;84.89;101231.28;5064915;28;20658;-66
2023/10/14 08:59:38;;;;;;;14.20;2.80;;;;;;;12.18;85.20;101240.09;5068600;28;20040;-66
2023/10/14 09:02:03;;;;;;;13.32;2.45;;;;;;;12.24;85.17;101243.91;5065267;28;20067;-66
2023/10/14 09:04:29;;;;;;;14.13;2.20;;;;;;;12.28;84.23;101247.88;5062300;28;20029;-66
2023/10/14 09:07:12;;;;;;;17.63;2.67;;;;;;;12.32;83.15;101244.69;5062558;28;20083;-66
2023/10/14 09:09:37;;;;;;;15.43;2.72;;;;;;;12.35;83.88;101236.34;5063910;28;20021;-67
2023/10/14 09:12:13;;;;;;;12.00;2.00;;;;;;;12.42;84.30;101249.81;5067381;28;20053;-67
2023/10/14 09:14:39;;;;;;;15.88;2.60;;;;;;;12.49;83.95;101250.78;5062380;28;20024;-67
2023/10/14 09:17:08;;;;;;;13.52;2.40;;;;;;;12.55;83.79;101250.09;5066026;28;20104;-66
2023/10/14 09:19:44;;;;;;;15.40;2.97;;;;;;;12.61;83.41;101253.91;5068249;28;20025;-66
2023/10/14 09:22:23;;;;;;;15.25;2.40;;;;;;;12.68;82.61;101255.69;5064198;28;20109;-66
2023/10/14 09:24:51;;;;;;;11.32;2.33;;;;;;;12.69;82.12;101254.69;5065439;28;20032;-67
2023/10/14 09:27:17;;;;;;;9.27;2.10;;;;;;;12.75;81.51;101258.50;5065032;28;20016;-66
2023/10/14 09:29:43;;;;;;;15.57;2.60;;;;;;;12.82;81.14;101251.47;5066143;28;20023;-66
2023/10/14 09:32:08;;;;;;;13.65;2.25;;;;;;;12.88;79.14;101253.41;5064404;28;20495;-66
2023/10/14 09:34:34;;;;;;;13.77;2.28;;;;;;;12.97;79.55;101259.53;5064760;28;20103;-67
2023/10/14 09:37:03;;;;;;;15.20;2.63;;;;;;;13.06;80.06;101257.66;5064224;28;20017;-67
2023/10/14 09:39:29;;;;;;;;;;;;;;;13.16;79.92;101258.25;5064210;28;20580;-67
2023/10/14 09:41:56;;;;;;;14.70;2.50;;;;;;;13.11;78.61;101264.13;5063871;28;19916;-66
2023/10/14 09:44:22;;;;;;;10.43;2.10;;;;;;;13.05;77.22;101272.00;5068571;28;20527;-66
2023/10/14 09:46:48;;;;;;;14.38;2.70;;;;;;;13.01;76.50;101272.34;5066317;28;20032;-66
2023/10/14 09:49:15;;;;;;;11.02;1.77;;;;;;;12.97;76.04;101265.69;5062091;28;20375;-66
2023/10/14 09:51:48;;;;;;;17.63;2.83;;;;;;;12.99;75.22;101277.00;5068354;28;20112;-66
2023/10/14 09:54:15;;;;;;;14.13;2.53;;;;;;;13.06;74.60;101271.81;5067773;28;20021;-68
2023/10/14 09:56:42;;;;;;;14.98;2.30;;;;;;;13.10;75.01;101283.78;5060394;28;20021;-69
2023/10/14 09:59:08;;;;;;;13.88;2.28;;;;;;;13.18;75.11;101286.44;5063859;28;20099;-66
2023/10/14 10:01:34;;;;;;;10.13;2.25;;;;;;;13.25;73.51;101290.03;5058594;28;20478;-66
2023/10/14 10:04:16;;;;;;;11.70;2.20;;;;;;;13.35;73.55;101294.34;5064724;28;20018;-66
2023/10/14 10:07:02;;;;;;;9.98;2.08;;;;;;;13.42;73.41;101289.94;5055551;28;20020;-66
2023/10/14 10:09:30;;;;;;;12.07;1.98;;;;;;;13.50;72.54;101300.53;5054006;28;20057;-66
2023/10/14 10:11:57;;;;;;;13.75;2.58;;;;;;;13.54;72.86;101293.84;5063141;28;20044;-66
2023/10/14 10:14:25;;;;;;;11.57;2.30;;;;;;;13.59;71.05;101324.34;5058273;28;20587;-66
2023/10/14 10:16:54;;;;;;;10.38;1.92;;;;;;;13.55;69.21;101300.84;5066412;28;20031;-66
2023/10/14 10:19:23;;;;;;;7.82;2.22;;;;;;;13.49;68.62;101299.72;5061788;28;20027;-66
2023/10/14 10:22:16;;;;;;;9.20;1.90;;;;;;;13.55;67.56;101304.34;5061204;28;20081;-66
2023/10/14 10:24:45;;;;;;;9.05;1.95;;;;;;;13.50;66.80;101305.88;5058114;28;20025;-66
2023/10/14 10:27:10;;;;;;;9.83;1.70;;;;;;;13.47;66.14;101311.56;5067449;28;20024;-66
2023/10/14 10:29:49;;;;;;;11.23;2.10;;;;;;;13.47;66.00;101296.41;5067173;28;20020;-65
2023/10/14 10:32:19;;;;;;;8.18;1.58;;;;;;;13.51;65.63;101312.88;5068783;28;20032;-66
2023/10/14 10:35:07;;;;;;;9.73;1.90;;;;;;;13.56;65.92;101319.34;5063224;28;20075;-66
2023/10/14 10:37:48;;;;;;;12.10;2.17;;;;;;;13.54;65.67;101317.84;5056486;28;20094;-65
2023/10/14 10:40:17;;;;;;;12.77;2.05;;;;;;;13.61;67.05;101308.16;5067454;28;20029;-66
2023/10/14 10:42:46;;;;;;;12.00;2.22;;;;;;;13.65;66.80;101325.47;5060888;28;20585;-66
2023/10/14 10:45:20;;;;;;;12.98;2.35;;;;;;;13.69;65.55;101316.09;5064628;28;20040;-66
2023/10/14 10:47:52;;;;;;;10.27;2.15;;;;;;;13.67;65.78;101331.44;5067179;28;20025;-66
2023/10/14 10:50:17;;;;;;;12.80;2.40;;;;;;;13.71;65.38;101337.25;5068406;28;20028;-65
2023/10/14 10:52:52;;;;;;;11.75;2.00;;;;;;;13.73;64.87;101335.25;5066669;28;20021;-65
2023/10/14 10:55:17;;;;;;;8.65;2.20;;;;;;;13.71;64.08;101324.75;5053986;28;20032;-66
2023/10/14 10:57:44;;;;;;;10.70;2.00;;;;;;;13.77;64.52;101328.53;5066318;28;20050;-66
2023/10/14 11:00:10;;;;;;;14.63;2.30;;;;;;;13.83;64.83;101344.66;5064853;28;20024;-66
2023/10/14 11:02:35;;;;;;;10.80;2.00;;;;;;;13.88;64.13;101331.63;5060331;28;20047;-65
2023/10/14 11:05:03;;;;;;;13.07;2.05;;;;;;;13.90;63.93;101337.59;5067198;28;20044;-65
2023/10/14 11:07:28;;;;;;;11.70;2.50;;;;;;;13.93;63.40;101334.56;5061836;28;20028;-66
2023/10/14 11:09:53;;;;;;;10.02;1.85;;;;;;;13.93;63.05;101339.09;5062708;28;22045;-66
2023/10/14 11:12:19;;;;;;;15.32;2.40;;;;;;;14.02;63.21;101347.84;5060378;28;20511;-66
2023/10/14 11:14:44;;;;;;;9.93;1.90;;;;;;;14.03;63.03;101336.16;5064579;28;20028;-65
2023/10/14 11:17:09;;;;;;;14.43;2.33;;;;;;;14.05;63.13;101342.13;5063426;28;20271;-66
2023/10/14 11:19:35;;;;;;;9.70;1.65;;;;;;;14.09;62.76;101346.09;5064914;28;20020;-66
2023/10/14 11:22:03;;;;;;;8.30;1.50;;;;;;;14.10;61.65;101345.91;5061135;28;20028;-66
2023/10/14 11:24:32;;;;;;;8.63;1.83;;;;;;;14.06;61.00;101349.97;5058989;28;20563;-65
2023/10/14 11:26:59;;;;;;;8.27;2.03;;;;;;;14.10;62.28;101334.41;5059098;28;20025;-66
2023/10/14 11:29:25;;;;;;;10.40;1.83;;;;;;;14.21;62.52;101344.66;5066428;28;20021;-66
2023/10/14 11:31:56;;;;;;;7.22;1.50;;;;;;;14.21;61.86;101331.31;5067379;28;20095;-65
2023/10/14 11:34:22;;;;;;;8.07;1.80;;;;;;;14.33;61.50;101345.03;5061078;28;20035;-65
2023/10/14 11:36:51;;;;;;;17.25;2.20;;;;;;;14.21;61.32;101315.28;5065044;28;20452;-65
2023/10/14 11:39:18;;;;;;;7.63;1.37;;;;;;;14.40;61.14;101344.13;5056318;28;20047;-66
2023/10/14 11:41:45;;;;;;;9.68;1.95;;;;;;;14.50;61.22;101352.75;5064519;28;20667;-65
2023/10/14 11:44:14;;;;;;;11.02;2.05;;;;;;;14.49;61.50;101353.75;5061719;28;20024;-66
2023/10/14 11:46:39;;;;;;;10.60;2.08;;;;;;;14.51;61.94;101359.75;5060969;28;20099;-66
2023/10/14 11:49:10;;;;;;;11.32;1.80;;;;;;;14.52;62.01;101361.41;5066392;28;20108;-66